sensor_id;sensor_type;location;lat;lon;timestamp;P1;durP1;ratioP1;P2;durP2;ratioP2
44139;SDS011;29803;51.048;4.686;2023-02-25T00:02:11;23.55;;;4.65;;
44139;SDS011;29803;51.048;4.686;2023-02-25T00:04:43;15.73;;;4.20;;
44139;SDS011;29803;51.048;4.686;2023-02-25T00:07:13;19.13;;;4.55;;
44139;SDS011;29803;51.048;4.686;2023-02-25T00:09:44;25.55;;;6.18;;
44139;SDS011;29803;51.048;4.686;2023-02-25T00:12:15;25.75;;;4.47;;
44139;SDS011;29803;51.048;4.686;2023-02-25T00:14:45;19.67;;;4.43;;
44139;SDS011;29803;51.048;4.686;2023-02-25T00:17:16;22.52;;;4.78;;
44139;SDS011;29803;51.048;4.686;2023-02-25T00:19:46;24.40;;;4.63;;
44139;SDS011;29803;51.048;4.686;2023-02-25T00:22:17;25.13;;;4.38;;
44139;SDS011;29803;51.048;4.686;2023-02-25T00:24:50;19.95;;;3.63;;
44139;SDS011;29803;51.048;4.686;2023-02-25T00:27:22;11.20;;;2.70;;
44139;SDS011;29803;51.048;4.686;2023-02-25T00:29:53;19.90;;;3.22;;
44139;SDS011;29803;51.048;4.686;2023-02-25T00:32:24;23.50;;;4.03;;
44139;SDS011;29803;51.048;4.686;2023-02-25T00:34:55;22.90;;;2.85;;
44139;SDS011;29803;51.048;4.686;2023-02-25T00:37:26;10.75;;;2.13;;
44139;SDS011;29803;51.048;4.686;2023-02-25T00:39:57;21.95;;;2.72;;
44139;SDS011;29803;51.048;4.686;2023-02-25T00:42:27;16.27;;;2.25;;
44139;SDS011;29803;51.048;4.686;2023-02-25T00:44:58;21.35;;;2.35;;
44139;SDS011;29803;51.048;4.686;2023-02-25T00:47:28;26.98;;;2.42;;
44139;SDS011;29803;51.048;4.686;2023-02-25T00:49:59;21.67;;;2.25;;
44139;SDS011;29803;51.048;4.686;2023-02-25T00:52:29;13.27;;;2.42;;
44139;SDS011;29803;51.048;4.686;2023-02-25T00:55:00;13.15;;;2.60;;
44139;SDS011;29803;51.048;4.686;2023-02-25T00:57:31;17.48;;;2.10;;
44139;SDS011;29803;51.048;4.686;2023-02-25T01:00:03;13.02;;;1.98;;
44139;SDS011;29803;51.048;4.686;2023-02-25T01:02:51;14.10;;;2.28;;
44139;SDS011;29803;51.048;4.686;2023-02-25T01:05:22;14.50;;;2.13;;
44139;SDS011;29803;51.048;4.686;2023-02-25T01:07:52;22.33;;;2.63;;
44139;SDS011;29803;51.048;4.686;2023-02-25T01:10:23;12.35;;;2.05;;
44139;SDS011;29803;51.048;4.686;2023-02-25T01:12:53;7.25;;;1.35;;
44139;SDS011;29803;51.048;4.686;2023-02-25T01:15:24;17.05;;;4.00;;
44139;SDS011;29803;51.048;4.686;2023-02-25T01:17:54;12.40;;;1.98;;
44139;SDS011;29803;51.048;4.686;2023-02-25T01:20:25;12.02;;;1.73;;
44139;SDS011;29803;51.048;4.686;2023-02-25T01:22:55;13.63;;;1.80;;
44139;SDS011;29803;51.048;4.686;2023-02-25T01:25:26;16.02;;;1.95;;
44139;SDS011;29803;51.048;4.686;2023-02-25T01:27:56;13.68;;;1.88;;
44139;SDS011;29803;51.048;4.686;2023-02-25T01:30:27;14.82;;;1.70;;
44139;SDS011;29803;51.048;4.686;2023-02-25T01:32:57;9.80;;;1.60;;
44139;SDS011;29803;51.048;4.686;2023-02-25T01:35:28;12.10;;;1.73;;
44139;SDS011;29803;51.048;4.686;2023-02-25T01:37:58;21.48;;;1.65;;
44139;SDS011;29803;51.048;4.686;2023-02-25T01:40:29;8.98;;;1.67;;
44139;SDS011;29803;51.048;4.686;2023-02-25T01:42:59;8.60;;;1.65;;
44139;SDS011;29803;51.048;4.686;2023-02-25T01:45:31;13.75;;;1.75;;
44139;SDS011;29803;51.048;4.686;2023-02-25T01:48:03;16.05;;;1.83;;
44139;SDS011;29803;51.048;4.686;2023-02-25T01:50:40;12.13;;;1.70;;
44139;SDS011;29803;51.048;4.686;2023-02-25T01:53:17;13.77;;;1.83;;
44139;SDS011;29803;51.048;4.686;2023-02-25T01:55:53;11.48;;;1.63;;
44139;SDS011;29803;51.048;4.686;2023-02-25T01:58:27;16.85;;;3.65;;
44139;SDS011;29803;51.048;4.686;2023-02-25T02:00:58;10.18;;;1.70;;
44139;SDS011;29803;51.048;4.686;2023-02-25T02:03:29;20.02;;;2.95;;
44139;SDS011;29803;51.048;4.686;2023-02-25T02:06:06;16.27;;;1.65;;
44139;SDS011;29803;51.048;4.686;2023-02-25T02:08:41;12.10;;;1.63;;
44139;SDS011;29803;51.048;4.686;2023-02-25T02:11:14;18.13;;;1.70;;
44139;SDS011;29803;51.048;4.686;2023-02-25T02:13:47;10.52;;;1.95;;
44139;SDS011;29803;51.048;4.686;2023-02-25T02:22:28;9.00;;;1.65;;
44139;SDS011;29803;51.048;4.686;2023-02-25T02:28:21;12.07;;;1.98;;
44139;SDS011;29803;51.048;4.686;2023-02-25T02:31:19;7.50;;;1.98;;
44139;SDS011;29803;51.048;4.686;2023-02-25T02:48:46;12.35;;;2.50;;
44139;SDS011;29803;51.048;4.686;2023-02-25T02:51:37;14.93;;;2.35;;
44139;SDS011;29803;51.048;4.686;2023-02-25T02:54:12;14.10;;;2.35;;
44139;SDS011;29803;51.048;4.686;2023-02-25T02:56:45;13.35;;;2.47;;
44139;SDS011;29803;51.048;4.686;2023-02-25T03:02:29;14.20;;;2.88;;
44139;SDS011;29803;51.048;4.686;2023-02-25T03:05:10;19.00;;;3.97;;
44139;SDS011;29803;51.048;4.686;2023-02-25T03:10:45;17.02;;;3.53;;
44139;SDS011;29803;51.048;4.686;2023-02-25T03:13:17;13.35;;;3.47;;
44139;SDS011;29803;51.048;4.686;2023-02-25T03:15:48;13.43;;;3.80;;
44139;SDS011;29803;51.048;4.686;2023-02-25T03:18:23;22.45;;;3.63;;
44139;SDS011;29803;51.048;4.686;2023-02-25T03:21:02;13.75;;;3.45;;
44139;SDS011;29803;51.048;4.686;2023-02-25T03:23:41;15.95;;;3.40;;
44139;SDS011;29803;51.048;4.686;2023-02-25T03:26:19;21.00;;;3.17;;
44139;SDS011;29803;51.048;4.686;2023-02-25T03:28:55;15.88;;;3.10;;
44139;SDS011;29803;51.048;4.686;2023-02-25T03:34:20;11.10;;;2.70;;
44139;SDS011;29803;51.048;4.686;2023-02-25T03:36:57;17.08;;;2.88;;
44139;SDS011;29803;51.048;4.686;2023-02-25T03:39:32;20.02;;;3.42;;
44139;SDS011;29803;51.048;4.686;2023-02-25T03:42:09;15.00;;;2.17;;
44139;SDS011;29803;51.048;4.686;2023-02-25T03:47:15;12.90;;;2.35;;
44139;SDS011;29803;51.048;4.686;2023-02-25T03:52:53;9.98;;;1.92;;
44139;SDS011;29803;51.048;4.686;2023-02-25T03:55:23;11.10;;;1.83;;
44139;SDS011;29803;51.048;4.686;2023-02-25T03:57:54;18.52;;;2.33;;
44139;SDS011;29803;51.048;4.686;2023-02-25T04:00:26;19.40;;;2.75;;
44139;SDS011;29803;51.048;4.686;2023-02-25T04:02:59;18.27;;;3.30;;
44139;SDS011;29803;51.048;4.686;2023-02-25T04:05:30;24.90;;;2.47;;
44139;SDS011;29803;51.048;4.686;2023-02-25T04:08:00;12.10;;;2.15;;
44139;SDS011;29803;51.048;4.686;2023-02-25T04:10:31;20.77;;;3.53;;
44139;SDS011;29803;51.048;4.686;2023-02-25T04:13:03;23.27;;;2.05;;
44139;SDS011;29803;51.048;4.686;2023-02-25T04:15:35;13.77;;;2.08;;
44139;SDS011;29803;51.048;4.686;2023-02-25T04:18:05;15.50;;;2.22;;
44139;SDS011;29803;51.048;4.686;2023-02-25T04:20:36;19.05;;;2.67;;
44139;SDS011;29803;51.048;4.686;2023-02-25T04:23:10;18.02;;;2.13;;
44139;SDS011;29803;51.048;4.686;2023-02-25T04:25:42;12.50;;;1.83;;
44139;SDS011;29803;51.048;4.686;2023-02-25T04:28:13;30.77;;;3.42;;
44139;SDS011;29803;51.048;4.686;2023-02-25T04:30:43;17.08;;;2.80;;
44139;SDS011;29803;51.048;4.686;2023-02-25T04:33:14;13.40;;;1.88;;
44139;SDS011;29803;51.048;4.686;2023-02-25T04:35:44;15.80;;;2.03;;
44139;SDS011;29803;51.048;4.686;2023-02-25T04:38:15;14.75;;;1.98;;
44139;SDS011;29803;51.048;4.686;2023-02-25T04:40:45;11.30;;;2.10;;
44139;SDS011;29803;51.048;4.686;2023-02-25T04:43:16;15.68;;;2.08;;
44139;SDS011;29803;51.048;4.686;2023-02-25T04:45:46;17.17;;;2.65;;
44139;SDS011;29803;51.048;4.686;2023-02-25T04:48:17;17.55;;;2.20;;
44139;SDS011;29803;51.048;4.686;2023-02-25T04:50:53;15.65;;;1.90;;
44139;SDS011;29803;51.048;4.686;2023-02-25T04:53:23;18.60;;;2.78;;
44139;SDS011;29803;51.048;4.686;2023-02-25T04:55:54;15.60;;;2.08;;
44139;SDS011;29803;51.048;4.686;2023-02-25T04:58:24;19.73;;;2.13;;
44139;SDS011;29803;51.048;4.686;2023-02-25T05:00:54;10.93;;;1.55;;
44139;SDS011;29803;51.048;4.686;2023-02-25T05:03:27;20.00;;;4.00;;
44139;SDS011;29803;51.048;4.686;2023-02-25T05:05:58;9.98;;;1.58;;
44139;SDS011;29803;51.048;4.686;2023-02-25T05:08:28;14.80;;;1.90;;
44139;SDS011;29803;51.048;4.686;2023-02-25T05:11:00;14.85;;;1.77;;
44139;SDS011;29803;51.048;4.686;2023-02-25T05:13:31;12.23;;;1.95;;
44139;SDS011;29803;51.048;4.686;2023-02-25T05:18:49;11.63;;;1.85;;
44139;SDS011;29803;51.048;4.686;2023-02-25T05:21:21;12.63;;;2.58;;
44139;SDS011;29803;51.048;4.686;2023-02-25T05:23:53;20.25;;;2.45;;
44139;SDS011;29803;51.048;4.686;2023-02-25T05:26:23;12.95;;;2.00;;
44139;SDS011;29803;51.048;4.686;2023-02-25T05:28:55;13.77;;;3.85;;
44139;SDS011;29803;51.048;4.686;2023-02-25T05:31:26;17.20;;;2.17;;
44139;SDS011;29803;51.048;4.686;2023-02-25T05:33:56;12.30;;;1.63;;
44139;SDS011;29803;51.048;4.686;2023-02-25T05:36:27;20.00;;;2.50;;
44139;SDS011;29803;51.048;4.686;2023-02-25T05:38:58;15.57;;;2.67;;
44139;SDS011;29803;51.048;4.686;2023-02-25T05:41:32;7.97;;;1.77;;
44139;SDS011;29803;51.048;4.686;2023-02-25T05:44:03;7.07;;;1.80;;
44139;SDS011;29803;51.048;4.686;2023-02-25T05:46:33;11.27;;;1.90;;
44139;SDS011;29803;51.048;4.686;2023-02-25T05:49:04;8.10;;;1.52;;
44139;SDS011;29803;51.048;4.686;2023-02-25T05:51:34;6.95;;;1.70;;
44139;SDS011;29803;51.048;4.686;2023-02-25T05:54:05;11.02;;;1.90;;
44139;SDS011;29803;51.048;4.686;2023-02-25T05:56:36;11.20;;;1.55;;
44139;SDS011;29803;51.048;4.686;2023-02-25T05:59:06;15.52;;;1.95;;
44139;SDS011;29803;51.048;4.686;2023-02-25T06:01:37;10.65;;;1.65;;
44139;SDS011;29803;51.048;4.686;2023-02-25T06:04:07;11.85;;;1.85;;
44139;SDS011;29803;51.048;4.686;2023-02-25T06:06:38;14.10;;;2.00;;
44139;SDS011;29803;51.048;4.686;2023-02-25T06:09:08;12.70;;;2.78;;
44139;SDS011;29803;51.048;4.686;2023-02-25T06:11:39;10.45;;;1.80;;
44139;SDS011;29803;51.048;4.686;2023-02-25T06:14:09;8.73;;;1.60;;
44139;SDS011;29803;51.048;4.686;2023-02-25T06:16:41;14.20;;;2.22;;
44139;SDS011;29803;51.048;4.686;2023-02-25T06:19:12;11.60;;;2.13;;
44139;SDS011;29803;51.048;4.686;2023-02-25T06:21:42;7.78;;;2.03;;
44139;SDS011;29803;51.048;4.686;2023-02-25T06:24:13;11.52;;;1.40;;
44139;SDS011;29803;51.048;4.686;2023-02-25T06:26:45;19.27;;;1.73;;
44139;SDS011;29803;51.048;4.686;2023-02-25T06:29:17;18.27;;;2.38;;
44139;SDS011;29803;51.048;4.686;2023-02-25T06:31:48;15.40;;;2.10;;
44139;SDS011;29803;51.048;4.686;2023-02-25T06:34:22;13.50;;;2.13;;
44139;SDS011;29803;51.048;4.686;2023-02-25T06:36:52;21.02;;;2.22;;
44139;SDS011;29803;51.048;4.686;2023-02-25T06:39:23;9.02;;;2.22;;
44139;SDS011;29803;51.048;4.686;2023-02-25T06:41:53;16.55;;;2.20;;
44139;SDS011;29803;51.048;4.686;2023-02-25T06:44:24;17.73;;;3.88;;
44139;SDS011;29803;51.048;4.686;2023-02-25T06:46:56;16.38;;;2.60;;
44139;SDS011;29803;51.048;4.686;2023-02-25T06:49:26;14.35;;;3.38;;
44139;SDS011;29803;51.048;4.686;2023-02-25T06:51:58;13.38;;;2.08;;
44139;SDS011;29803;51.048;4.686;2023-02-25T06:54:29;16.83;;;2.60;;
44139;SDS011;29803;51.048;4.686;2023-02-25T06:56:59;13.23;;;2.05;;
44139;SDS011;29803;51.048;4.686;2023-02-25T06:59:33;13.93;;;2.20;;
44139;SDS011;29803;51.048;4.686;2023-02-25T07:02:05;20.02;;;4.30;;
44139;SDS011;29803;51.048;4.686;2023-02-25T07:04:37;10.05;;;1.95;;
44139;SDS011;29803;51.048;4.686;2023-02-25T07:07:08;22.95;;;3.97;;
44139;SDS011;29803;51.048;4.686;2023-02-25T07:09:39;15.63;;;2.72;;
44139;SDS011;29803;51.048;4.686;2023-02-25T07:12:09;13.65;;;2.42;;
44139;SDS011;29803;51.048;4.686;2023-02-25T07:14:40;13.63;;;2.10;;
44139;SDS011;29803;51.048;4.686;2023-02-25T07:17:11;17.17;;;2.88;;
44139;SDS011;29803;51.048;4.686;2023-02-25T07:19:42;9.43;;;1.95;;
44139;SDS011;29803;51.048;4.686;2023-02-25T07:22:13;19.00;;;2.17;;
44139;SDS011;29803;51.048;4.686;2023-02-25T07:24:45;19.15;;;2.78;;
44139;SDS011;29803;51.048;4.686;2023-02-25T07:27:15;9.63;;;2.83;;
44139;SDS011;29803;51.048;4.686;2023-02-25T07:29:49;11.70;;;2.03;;
44139;SDS011;29803;51.048;4.686;2023-02-25T07:32:19;12.75;;;2.42;;
44139;SDS011;29803;51.048;4.686;2023-02-25T07:34:50;15.90;;;2.45;;
44139;SDS011;29803;51.048;4.686;2023-02-25T07:37:20;12.93;;;3.00;;
44139;SDS011;29803;51.048;4.686;2023-02-25T07:39:51;9.25;;;2.67;;
44139;SDS011;29803;51.048;4.686;2023-02-25T07:42:21;17.40;;;2.28;;
44139;SDS011;29803;51.048;4.686;2023-02-25T07:44:52;18.48;;;2.40;;
44139;SDS011;29803;51.048;4.686;2023-02-25T07:47:22;21.83;;;3.00;;
44139;SDS011;29803;51.048;4.686;2023-02-25T07:49:53;20.40;;;3.10;;
44139;SDS011;29803;51.048;4.686;2023-02-25T07:52:23;14.55;;;2.95;;
44139;SDS011;29803;51.048;4.686;2023-02-25T07:54:54;22.33;;;3.97;;
44139;SDS011;29803;51.048;4.686;2023-02-25T07:57:24;16.17;;;2.28;;
44139;SDS011;29803;51.048;4.686;2023-02-25T07:59:56;11.70;;;2.70;;
44139;SDS011;29803;51.048;4.686;2023-02-25T08:02:27;12.95;;;3.13;;
44139;SDS011;29803;51.048;4.686;2023-02-25T08:04:58;20.40;;;3.90;;
44139;SDS011;29803;51.048;4.686;2023-02-25T08:07:29;14.35;;;2.72;;
44139;SDS011;29803;51.048;4.686;2023-02-25T08:10:00;13.82;;;2.60;;
44139;SDS011;29803;51.048;4.686;2023-02-25T08:12:31;20.98;;;2.90;;
44139;SDS011;29803;51.048;4.686;2023-02-25T08:15:01;23.80;;;3.45;;
44139;SDS011;29803;51.048;4.686;2023-02-25T08:17:33;15.05;;;2.75;;
44139;SDS011;29803;51.048;4.686;2023-02-25T08:20:04;17.20;;;2.70;;
44139;SDS011;29803;51.048;4.686;2023-02-25T08:22:35;12.63;;;2.80;;
44139;SDS011;29803;51.048;4.686;2023-02-25T08:25:06;13.18;;;2.13;;
44139;SDS011;29803;51.048;4.686;2023-02-25T08:27:37;17.63;;;2.22;;
44139;SDS011;29803;51.048;4.686;2023-02-25T08:30:10;16.88;;;1.95;;
44139;SDS011;29803;51.048;4.686;2023-02-25T08:32:41;16.60;;;2.08;;
44139;SDS011;29803;51.048;4.686;2023-02-25T08:35:12;9.38;;;2.25;;
44139;SDS011;29803;51.048;4.686;2023-02-25T08:37:43;14.30;;;2.30;;
44139;SDS011;29803;51.048;4.686;2023-02-25T08:40:14;14.55;;;2.30;;
44139;SDS011;29803;51.048;4.686;2023-02-25T08:42:45;17.85;;;2.55;;
44139;SDS011;29803;51.048;4.686;2023-02-25T08:45:15;10.88;;;1.70;;
44139;SDS011;29803;51.048;4.686;2023-02-25T08:47:46;19.20;;;2.05;;
44139;SDS011;29803;51.048;4.686;2023-02-25T08:50:17;13.27;;;2.05;;
44139;SDS011;29803;51.048;4.686;2023-02-25T08:52:49;18.00;;;1.90;;
44139;SDS011;29803;51.048;4.686;2023-02-25T08:55:20;11.32;;;1.75;;
44139;SDS011;29803;51.048;4.686;2023-02-25T08:57:53;14.98;;;1.80;;
44139;SDS011;29803;51.048;4.686;2023-02-25T09:00:24;16.30;;;2.75;;
44139;SDS011;29803;51.048;4.686;2023-02-25T09:02:54;11.95;;;1.80;;
44139;SDS011;29803;51.048;4.686;2023-02-25T09:05:25;8.07;;;1.70;;
44139;SDS011;29803;51.048;4.686;2023-02-25T09:07:58;18.55;;;2.17;;
44139;SDS011;29803;51.048;4.686;2023-02-25T09:10:29;12.95;;;2.22;;
44139;SDS011;29803;51.048;4.686;2023-02-25T09:12:59;14.65;;;1.80;;
44139;SDS011;29803;51.048;4.686;2023-02-25T09:15:30;10.15;;;1.85;;
44139;SDS011;29803;51.048;4.686;2023-02-25T09:18:01;14.88;;;2.13;;
44139;SDS011;29803;51.048;4.686;2023-02-25T09:20:32;13.80;;;2.08;;
44139;SDS011;29803;51.048;4.686;2023-02-25T09:23:03;17.58;;;2.13;;
44139;SDS011;29803;51.048;4.686;2023-02-25T09:25:34;12.07;;;2.58;;
44139;SDS011;29803;51.048;4.686;2023-02-25T09:28:07;12.82;;;2.25;;
44139;SDS011;29803;51.048;4.686;2023-02-25T09:30:39;15.93;;;2.55;;
44139;SDS011;29803;51.048;4.686;2023-02-25T09:33:09;16.60;;;2.13;;
44139;SDS011;29803;51.048;4.686;2023-02-25T09:35:40;9.15;;;2.20;;
44139;SDS011;29803;51.048;4.686;2023-02-25T09:38:11;15.60;;;2.08;;
44139;SDS011;29803;51.048;4.686;2023-02-25T09:40:44;11.00;;;2.28;;
44139;SDS011;29803;51.048;4.686;2023-02-25T09:48:36;13.00;;;2.25;;
44139;SDS011;29803;51.048;4.686;2023-02-25T09:57:00;14.65;;;1.80;;
44139;SDS011;29803;51.048;4.686;2023-02-25T09:59:36;18.77;;;2.30;;
44139;SDS011;29803;51.048;4.686;2023-02-25T10:05:11;12.68;;;2.58;;
44139;SDS011;29803;51.048;4.686;2023-02-25T10:10:31;21.67;;;2.13;;
44139;SDS011;29803;51.048;4.686;2023-02-25T10:16:08;19.98;;;2.42;;
44139;SDS011;29803;51.048;4.686;2023-02-25T10:35:56;14.55;;;2.83;;
44139;SDS011;29803;51.048;4.686;2023-02-25T10:41:29;12.32;;;2.33;;
44139;SDS011;29803;51.048;4.686;2023-02-25T10:44:00;10.48;;;2.72;;
44139;SDS011;29803;51.048;4.686;2023-02-25T10:46:33;15.00;;;2.50;;
44139;SDS011;29803;51.048;4.686;2023-02-25T10:49:15;17.10;;;3.38;;
44139;SDS011;29803;51.048;4.686;2023-02-25T10:54:57;22.52;;;2.92;;
44139;SDS011;29803;51.048;4.686;2023-02-25T10:57:33;15.77;;;2.20;;
44139;SDS011;29803;51.048;4.686;2023-02-25T11:00:22;14.23;;;2.53;;
44139;SDS011;29803;51.048;4.686;2023-02-25T11:02:56;23.60;;;3.22;;
44139;SDS011;29803;51.048;4.686;2023-02-25T11:11:13;17.48;;;3.03;;
44139;SDS011;29803;51.048;4.686;2023-02-25T11:19:59;18.98;;;2.58;;
44139;SDS011;29803;51.048;4.686;2023-02-25T11:22:33;20.35;;;3.85;;
44139;SDS011;29803;51.048;4.686;2023-02-25T11:28:04;13.77;;;3.50;;
44139;SDS011;29803;51.048;4.686;2023-02-25T11:30:45;16.48;;;2.75;;
44139;SDS011;29803;51.048;4.686;2023-02-25T11:36:07;21.10;;;3.10;;
44139;SDS011;29803;51.048;4.686;2023-02-25T11:38:40;19.73;;;3.75;;
44139;SDS011;29803;51.048;4.686;2023-02-25T11:41:21;20.92;;;2.97;;
44139;SDS011;29803;51.048;4.686;2023-02-25T11:43:53;17.98;;;4.15;;
44139;SDS011;29803;51.048;4.686;2023-02-25T11:46:27;23.95;;;4.75;;
44139;SDS011;29803;51.048;4.686;2023-02-25T11:49:36;24.60;;;4.68;;
44139;SDS011;29803;51.048;4.686;2023-02-25T11:52:03;21.77;;;3.85;;
44139;SDS011;29803;51.048;4.686;2023-02-25T11:54:45;18.75;;;3.72;;
44139;SDS011;29803;51.048;4.686;2023-02-25T11:57:33;18.70;;;3.20;;
44139;SDS011;29803;51.048;4.686;2023-02-25T12:09:42;14.88;;;2.03;;
44139;SDS011;29803;51.048;4.686;2023-02-25T12:18:47;12.48;;;2.45;;
44139;SDS011;29803;51.048;4.686;2023-02-25T12:35:54;6.22;;;1.50;;
44139;SDS011;29803;51.048;4.686;2023-02-25T12:41:38;10.68;;;1.75;;
44139;SDS011;29803;51.048;4.686;2023-02-25T12:50:07;7.28;;;2.00;;
44139;SDS011;29803;51.048;4.686;2023-02-25T13:11:04;3.72;;;0.70;;
44139;SDS011;29803;51.048;4.686;2023-02-25T13:16:18;2.75;;;0.95;;
44139;SDS011;29803;51.048;4.686;2023-02-25T13:28:20;6.32;;;1.00;;
44139;SDS011;29803;51.048;4.686;2023-02-25T13:31:16;3.05;;;0.82;;
44139;SDS011;29803;51.048;4.686;2023-02-25T13:52:34;2.88;;;1.05;;
44139;SDS011;29803;51.048;4.686;2023-02-25T14:01:39;4.25;;;1.15;;
44139;SDS011;29803;51.048;4.686;2023-02-25T14:13:28;4.10;;;0.80;;
44139;SDS011;29803;51.048;4.686;2023-02-25T14:19:08;5.82;;;2.08;;
44139;SDS011;29803;51.048;4.686;2023-02-25T14:39:45;8.10;;;1.63;;
44139;SDS011;29803;51.048;4.686;2023-02-25T14:45:27;9.23;;;1.70;;
44139;SDS011;29803;51.048;4.686;2023-02-25T14:48:04;6.38;;;1.20;;
44139;SDS011;29803;51.048;4.686;2023-02-25T14:50:59;7.25;;;1.50;;
44139;SDS011;29803;51.048;4.686;2023-02-25T15:00:02;11.55;;;1.90;;
44139;SDS011;29803;51.048;4.686;2023-02-25T15:02:46;9.10;;;1.52;;
44139;SDS011;29803;51.048;4.686;2023-02-25T15:20:29;7.65;;;2.00;;
44139;SDS011;29803;51.048;4.686;2023-02-25T15:23:05;8.45;;;1.25;;
44139;SDS011;29803;51.048;4.686;2023-02-25T15:28:46;11.27;;;1.95;;
44139;SDS011;29803;51.048;4.686;2023-02-25T15:34:23;5.18;;;1.70;;
44139;SDS011;29803;51.048;4.686;2023-02-25T15:45:45;7.22;;;1.80;;
44139;SDS011;29803;51.048;4.686;2023-02-25T16:04:05;9.45;;;1.63;;
44139;SDS011;29803;51.048;4.686;2023-02-25T16:07:04;8.00;;;1.92;;
44139;SDS011;29803;51.048;4.686;2023-02-25T16:09:38;16.35;;;1.98;;
44139;SDS011;29803;51.048;4.686;2023-02-25T16:12:13;14.05;;;1.80;;
44139;SDS011;29803;51.048;4.686;2023-02-25T16:14:45;7.90;;;1.70;;
44139;SDS011;29803;51.048;4.686;2023-02-25T16:17:17;9.98;;;3.53;;
44139;SDS011;29803;51.048;4.686;2023-02-25T16:19:53;10.27;;;2.28;;
44139;SDS011;29803;51.048;4.686;2023-02-25T16:22:27;15.50;;;1.38;;
44139;SDS011;29803;51.048;4.686;2023-02-25T16:24:58;8.05;;;1.42;;
44139;SDS011;29803;51.048;4.686;2023-02-25T16:27:34;6.03;;;1.40;;
44139;SDS011;29803;51.048;4.686;2023-02-25T16:36:04;5.82;;;1.30;;
44139;SDS011;29803;51.048;4.686;2023-02-25T16:38:48;11.73;;;1.70;;
44139;SDS011;29803;51.048;4.686;2023-02-25T16:41:20;9.02;;;2.13;;
44139;SDS011;29803;51.048;4.686;2023-02-25T16:43:51;18.00;;;2.35;;
44139;SDS011;29803;51.048;4.686;2023-02-25T16:46:22;8.38;;;1.13;;
44139;SDS011;29803;51.048;4.686;2023-02-25T16:49:00;11.65;;;1.60;;
44139;SDS011;29803;51.048;4.686;2023-02-25T16:51:37;9.70;;;1.45;;
44139;SDS011;29803;51.048;4.686;2023-02-25T16:57:03;7.50;;;1.30;;
44139;SDS011;29803;51.048;4.686;2023-02-25T16:59:36;19.08;;;2.30;;
44139;SDS011;29803;51.048;4.686;2023-02-25T17:04:55;7.85;;;1.33;;
44139;SDS011;29803;51.048;4.686;2023-02-25T17:07:26;8.27;;;1.60;;
44139;SDS011;29803;51.048;4.686;2023-02-25T17:09:59;5.00;;;1.38;;
44139;SDS011;29803;51.048;4.686;2023-02-25T17:15:05;12.52;;;1.88;;
44139;SDS011;29803;51.048;4.686;2023-02-25T17:17:43;7.82;;;1.75;;
44139;SDS011;29803;51.048;4.686;2023-02-25T17:20:17;14.75;;;2.63;;
44139;SDS011;29803;51.048;4.686;2023-02-25T17:22:52;9.18;;;1.58;;
44139;SDS011;29803;51.048;4.686;2023-02-25T17:25:26;18.00;;;2.60;;
44139;SDS011;29803;51.048;4.686;2023-02-25T17:28:03;11.18;;;2.22;;
44139;SDS011;29803;51.048;4.686;2023-02-25T17:30:37;10.27;;;2.85;;
44139;SDS011;29803;51.048;4.686;2023-02-25T17:33:19;8.57;;;1.67;;
44139;SDS011;29803;51.048;4.686;2023-02-25T17:36:10;8.43;;;1.90;;
44139;SDS011;29803;51.048;4.686;2023-02-25T17:38:43;9.77;;;2.20;;
44139;SDS011;29803;51.048;4.686;2023-02-25T17:41:15;11.13;;;2.50;;
44139;SDS011;29803;51.048;4.686;2023-02-25T17:43:47;12.55;;;1.75;;
44139;SDS011;29803;51.048;4.686;2023-02-25T17:46:30;9.85;;;1.90;;
44139;SDS011;29803;51.048;4.686;2023-02-25T17:49:18;5.45;;;1.90;;
44139;SDS011;29803;51.048;4.686;2023-02-25T17:51:55;11.98;;;1.80;;
44139;SDS011;29803;51.048;4.686;2023-02-25T17:54:29;7.18;;;1.65;;
44139;SDS011;29803;51.048;4.686;2023-02-25T17:57:05;16.05;;;2.72;;
44139;SDS011;29803;51.048;4.686;2023-02-25T18:08:07;11.80;;;2.35;;
44139;SDS011;29803;51.048;4.686;2023-02-25T18:10:46;7.63;;;1.85;;
44139;SDS011;29803;51.048;4.686;2023-02-25T18:13:25;13.02;;;2.33;;
44139;SDS011;29803;51.048;4.686;2023-02-25T18:19:10;10.60;;;2.63;;
44139;SDS011;29803;51.048;4.686;2023-02-25T18:21:52;15.52;;;2.75;;
44139;SDS011;29803;51.048;4.686;2023-02-25T18:24:25;13.75;;;2.80;;
44139;SDS011;29803;51.048;4.686;2023-02-25T18:26:59;16.52;;;2.60;;
44139;SDS011;29803;51.048;4.686;2023-02-25T18:29:48;19.52;;;2.60;;
44139;SDS011;29803;51.048;4.686;2023-02-25T18:32:18;14.75;;;2.63;;
44139;SDS011;29803;51.048;4.686;2023-02-25T18:34:48;15.50;;;2.40;;
44139;SDS011;29803;51.048;4.686;2023-02-25T18:37:19;7.47;;;2.33;;
44139;SDS011;29803;51.048;4.686;2023-02-25T18:39:49;11.10;;;2.88;;
44139;SDS011;29803;51.048;4.686;2023-02-25T18:42:20;10.27;;;2.65;;
44139;SDS011;29803;51.048;4.686;2023-02-25T18:44:50;12.20;;;3.03;;
44139;SDS011;29803;51.048;4.686;2023-02-25T18:47:21;8.57;;;2.55;;
44139;SDS011;29803;51.048;4.686;2023-02-25T18:49:52;9.57;;;3.08;;
44139;SDS011;29803;51.048;4.686;2023-02-25T18:52:23;17.30;;;2.75;;
44139;SDS011;29803;51.048;4.686;2023-02-25T18:54:55;10.25;;;2.50;;
44139;SDS011;29803;51.048;4.686;2023-02-25T18:57:25;9.00;;;1.92;;
44139;SDS011;29803;51.048;4.686;2023-02-25T18:59:59;9.27;;;1.90;;
44139;SDS011;29803;51.048;4.686;2023-02-25T19:02:31;4.40;;;1.90;;
44139;SDS011;29803;51.048;4.686;2023-02-25T19:05:04;12.63;;;2.63;;
44139;SDS011;29803;51.048;4.686;2023-02-25T19:07:35;14.52;;;3.08;;
44139;SDS011;29803;51.048;4.686;2023-02-25T19:10:10;15.38;;;2.92;;
44139;SDS011;29803;51.048;4.686;2023-02-25T19:12:44;13.63;;;2.63;;
44139;SDS011;29803;51.048;4.686;2023-02-25T19:15:19;17.38;;;2.65;;
44139;SDS011;29803;51.048;4.686;2023-02-25T19:17:50;15.25;;;3.03;;
44139;SDS011;29803;51.048;4.686;2023-02-25T19:20:21;8.00;;;2.50;;
44139;SDS011;29803;51.048;4.686;2023-02-25T19:22:52;8.18;;;2.78;;
44139;SDS011;29803;51.048;4.686;2023-02-25T19:25:24;10.18;;;2.55;;
44139;SDS011;29803;51.048;4.686;2023-02-25T19:27:57;7.40;;;2.38;;
44139;SDS011;29803;51.048;4.686;2023-02-25T19:30:28;12.48;;;2.90;;
44139;SDS011;29803;51.048;4.686;2023-02-25T19:33:03;9.27;;;2.25;;
44139;SDS011;29803;51.048;4.686;2023-02-25T19:35:36;7.10;;;1.98;;
44139;SDS011;29803;51.048;4.686;2023-02-25T19:38:10;13.97;;;2.80;;
44139;SDS011;29803;51.048;4.686;2023-02-25T19:40:44;14.95;;;3.03;;
44139;SDS011;29803;51.048;4.686;2023-02-25T19:43:16;11.85;;;2.50;;
44139;SDS011;29803;51.048;4.686;2023-02-25T19:45:47;14.05;;;2.38;;
44139;SDS011;29803;51.048;4.686;2023-02-25T19:48:19;12.23;;;2.53;;
44139;SDS011;29803;51.048;4.686;2023-02-25T19:50:49;9.88;;;2.45;;
44139;SDS011;29803;51.048;4.686;2023-02-25T19:53:20;15.30;;;2.70;;
44139;SDS011;29803;51.048;4.686;2023-02-25T19:55:53;14.02;;;2.60;;
44139;SDS011;29803;51.048;4.686;2023-02-25T19:58:24;10.35;;;2.95;;
44139;SDS011;29803;51.048;4.686;2023-02-25T20:00:59;14.38;;;2.60;;
44139;SDS011;29803;51.048;4.686;2023-02-25T20:03:31;14.00;;;2.55;;
44139;SDS011;29803;51.048;4.686;2023-02-25T20:06:04;19.17;;;2.78;;
44139;SDS011;29803;51.048;4.686;2023-02-25T20:08:37;11.68;;;3.25;;
44139;SDS011;29803;51.048;4.686;2023-02-25T20:11:08;15.70;;;2.72;;
44139;SDS011;29803;51.048;4.686;2023-02-25T20:13:39;16.33;;;2.88;;
44139;SDS011;29803;51.048;4.686;2023-02-25T20:16:10;18.45;;;3.60;;
44139;SDS011;29803;51.048;4.686;2023-02-25T20:18:41;13.80;;;2.80;;
44139;SDS011;29803;51.048;4.686;2023-02-25T20:21:12;9.88;;;2.55;;
44139;SDS011;29803;51.048;4.686;2023-02-25T20:23:43;8.55;;;2.95;;